sensor_id;sensor_type;location;lat;lon;timestamp;P1;durP1;ratioP1;P2;durP2;ratioP2
2396;SDS011;1209;48.410;9.054;2023-03-21T00:01:28;3.33;;;3.00;;
2396;SDS011;1209;48.410;9.054;2023-03-21T00:03:54;2.93;;;2.63;;
2396;SDS011;1209;48.410;9.054;2023-03-21T00:06:19;3.30;;;3.00;;
2396;SDS011;1209;48.410;9.054;2023-03-21T00:08:45;2.40;;;2.20;;
2396;SDS011;1209;48.410;9.054;2023-03-21T00:11:11;2.40;;;2.20;;
2396;SDS011;1209;48.410;9.054;2023-03-21T00:13:37;2.63;;;2.10;;
2396;SDS011;1209;48.410;9.054;2023-03-21T00:16:07;3.70;;;2.13;;
2396;SDS011;1209;48.410;9.054;2023-03-21T00:18:34;6.90;;;3.10;;
2396;SDS011;1209;48.410;9.054;2023-03-21T00:21:04;3.20;;;2.50;;
2396;SDS011;1209;48.410;9.054;2023-03-21T00:23:30;2.30;;;2.10;;
2396;SDS011;1209;48.410;9.054;2023-03-21T00:25:56;3.27;;;2.07;;
2396;SDS011;1209;48.410;9.054;2023-03-21T00:28:22;2.20;;;2.00;;
2396;SDS011;1209;48.410;9.054;2023-03-21T00:30:48;2.60;;;2.40;;
2396;SDS011;1209;48.410;9.054;2023-03-21T00:33:14;2.00;;;1.90;;
2396;SDS011;1209;48.410;9.054;2023-03-21T00:35:39;2.30;;;2.10;;
2396;SDS011;1209;48.410;9.054;2023-03-21T00:38:11;3.27;;;2.87;;
2396;SDS011;1209;48.410;9.054;2023-03-21T00:40:37;2.83;;;2.37;;
2396;SDS011;1209;48.410;9.054;2023-03-21T00:43:02;3.37;;;2.40;;
2396;SDS011;1209;48.410;9.054;2023-03-21T00:45:27;3.33;;;1.70;;
2396;SDS011;1209;48.410;9.054;2023-03-21T00:47:53;1.97;;;1.87;;
2396;SDS011;1209;48.410;9.054;2023-03-21T00:50:18;1.83;;;1.73;;
2396;SDS011;1209;48.410;9.054;2023-03-21T00:52:43;2.80;;;2.20;;
2396;SDS011;1209;48.410;9.054;2023-03-21T00:55:12;3.90;;;2.23;;
2396;SDS011;1209;48.410;9.054;2023-03-21T00:57:39;2.37;;;2.20;;
2396;SDS011;1209;48.410;9.054;2023-03-21T01:00:05;2.30;;;2.10;;
2396;SDS011;1209;48.410;9.054;2023-03-21T01:02:34;2.30;;;2.20;;
2396;SDS011;1209;48.410;9.054;2023-03-21T01:05:01;3.07;;;2.17;;
2396;SDS011;1209;48.410;9.054;2023-03-21T01:07:28;2.00;;;1.90;;
2396;SDS011;1209;48.410;9.054;2023-03-21T01:09:53;2.60;;;2.40;;
2396;SDS011;1209;48.410;9.054;2023-03-21T01:12:18;2.00;;;1.90;;
2396;SDS011;1209;48.410;9.054;2023-03-21T01:14:44;1.67;;;1.57;;
2396;SDS011;1209;48.410;9.054;2023-03-21T01:17:09;1.87;;;1.77;;
2396;SDS011;1209;48.410;9.054;2023-03-21T01:19:34;2.10;;;1.97;;
2396;SDS011;1209;48.410;9.054;2023-03-21T01:21:59;1.60;;;1.50;;
2396;SDS011;1209;48.410;9.054;2023-03-21T01:24:25;1.97;;;1.87;;
2396;SDS011;1209;48.410;9.054;2023-03-21T01:26:50;1.70;;;1.60;;
2396;SDS011;1209;48.410;9.054;2023-03-21T01:29:16;1.80;;;1.70;;
2396;SDS011;1209;48.410;9.054;2023-03-21T01:31:41;2.07;;;1.87;;
2396;SDS011;1209;48.410;9.054;2023-03-21T01:34:07;2.40;;;2.07;;
2396;SDS011;1209;48.410;9.054;2023-03-21T01:36:32;1.70;;;1.60;;
2396;SDS011;1209;48.410;9.054;2023-03-21T01:38:57;2.40;;;1.87;;
2396;SDS011;1209;48.410;9.054;2023-03-21T01:41:27;1.87;;;1.77;;
2396;SDS011;1209;48.410;9.054;2023-03-21T01:43:54;2.53;;;1.90;;
2396;SDS011;1209;48.410;9.054;2023-03-21T01:46:33;3.47;;;2.17;;
2396;SDS011;1209;48.410;9.054;2023-03-21T01:49:05;2.43;;;2.10;;
2396;SDS011;1209;48.410;9.054;2023-03-21T01:51:36;2.30;;;2.10;;
2396;SDS011;1209;48.410;9.054;2023-03-21T01:54:05;3.43;;;2.30;;
2396;SDS011;1209;48.410;9.054;2023-03-21T01:56:34;2.17;;;1.93;;
2396;SDS011;1209;48.410;9.054;2023-03-21T01:59:04;1.90;;;1.80;;
2396;SDS011;1209;48.410;9.054;2023-03-21T02:01:36;4.43;;;2.20;;
2396;SDS011;1209;48.410;9.054;2023-03-21T02:04:06;2.17;;;1.90;;
2396;SDS011;1209;48.410;9.054;2023-03-21T02:09:08;2.03;;;1.93;;
2396;SDS011;1209;48.410;9.054;2023-03-21T02:11:37;6.53;;;2.60;;
2396;SDS011;1209;48.410;9.054;2023-03-21T02:14:03;1.80;;;1.70;;
2396;SDS011;1209;48.410;9.054;2023-03-21T02:21:56;2.07;;;1.97;;
2396;SDS011;1209;48.410;9.054;2023-03-21T02:24:48;2.53;;;2.20;;
2396;SDS011;1209;48.410;9.054;2023-03-21T02:27:20;2.23;;;2.03;;
2396;SDS011;1209;48.410;9.054;2023-03-21T02:32:46;4.10;;;2.50;;
2396;SDS011;1209;48.410;9.054;2023-03-21T02:40:36;1.93;;;1.83;;
2396;SDS011;1209;48.410;9.054;2023-03-21T02:43:08;2.23;;;1.97;;
2396;SDS011;1209;48.410;9.054;2023-03-21T02:48:24;2.73;;;2.27;;
2396;SDS011;1209;48.410;9.054;2023-03-21T02:50:55;2.27;;;2.17;;
2396;SDS011;1209;48.410;9.054;2023-03-21T02:53:25;3.63;;;2.50;;
2396;SDS011;1209;48.410;9.054;2023-03-21T02:55:55;2.23;;;2.13;;
2396;SDS011;1209;48.410;9.054;2023-03-21T02:58:23;2.23;;;2.13;;
2396;SDS011;1209;48.410;9.054;2023-03-21T03:00:51;3.03;;;2.00;;
2396;SDS011;1209;48.410;9.054;2023-03-21T03:03:20;1.70;;;1.60;;
2396;SDS011;1209;48.410;9.054;2023-03-21T03:05:47;3.80;;;2.67;;
2396;SDS011;1209;48.410;9.054;2023-03-21T03:11:17;6.53;;;2.30;;
2396;SDS011;1209;48.410;9.054;2023-03-21T03:19:12;2.40;;;2.20;;
2396;SDS011;1209;48.410;9.054;2023-03-21T03:21:46;4.13;;;2.30;;
2396;SDS011;1209;48.410;9.054;2023-03-21T03:26:56;2.17;;;1.97;;
2396;SDS011;1209;48.410;9.054;2023-03-21T03:32:49;4.93;;;2.10;;
2396;SDS011;1209;48.410;9.054;2023-03-21T03:35:20;2.27;;;2.17;;
2396;SDS011;1209;48.410;9.054;2023-03-21T03:37:48;2.67;;;2.47;;
2396;SDS011;1209;48.410;9.054;2023-03-21T03:40:29;2.93;;;2.30;;
2396;SDS011;1209;48.410;9.054;2023-03-21T03:43:02;2.53;;;2.10;;
2396;SDS011;1209;48.410;9.054;2023-03-21T03:45:33;2.40;;;2.20;;
2396;SDS011;1209;48.410;9.054;2023-03-21T03:48:13;3.80;;;2.73;;
2396;SDS011;1209;48.410;9.054;2023-03-21T03:51:06;2.67;;;2.53;;
2396;SDS011;1209;48.410;9.054;2023-03-21T03:53:36;2.80;;;2.40;;
2396;SDS011;1209;48.410;9.054;2023-03-21T03:56:06;4.20;;;2.50;;
2396;SDS011;1209;48.410;9.054;2023-03-21T03:58:35;3.63;;;2.37;;
2396;SDS011;1209;48.410;9.054;2023-03-21T04:01:03;4.67;;;2.93;;
2396;SDS011;1209;48.410;9.054;2023-03-21T04:03:29;4.40;;;2.50;;
2396;SDS011;1209;48.410;9.054;2023-03-21T04:05:55;3.43;;;2.80;;
2396;SDS011;1209;48.410;9.054;2023-03-21T04:08:21;2.67;;;2.47;;
2396;SDS011;1209;48.410;9.054;2023-03-21T04:10:47;3.07;;;2.70;;
2396;SDS011;1209;48.410;9.054;2023-03-21T04:13:13;2.37;;;2.27;;
2396;SDS011;1209;48.410;9.054;2023-03-21T04:15:39;2.90;;;2.70;;
2396;SDS011;1209;48.410;9.054;2023-03-21T04:18:04;2.67;;;2.47;;
2396;SDS011;1209;48.410;9.054;2023-03-21T04:20:30;2.70;;;2.20;;
2396;SDS011;1209;48.410;9.054;2023-03-21T04:22:55;2.83;;;2.40;;
2396;SDS011;1209;48.410;9.054;2023-03-21T04:25:21;4.77;;;2.40;;
2396;SDS011;1209;48.410;9.054;2023-03-21T04:27:46;3.17;;;2.70;;
2396;SDS011;1209;48.410;9.054;2023-03-21T04:30:12;3.03;;;2.60;;
2396;SDS011;1209;48.410;9.054;2023-03-21T04:32:39;2.87;;;2.53;;
2396;SDS011;1209;48.410;9.054;2023-03-21T04:35:05;3.53;;;2.60;;
2396;SDS011;1209;48.410;9.054;2023-03-21T04:37:32;2.77;;;2.57;;
2396;SDS011;1209;48.410;9.054;2023-03-21T04:40:01;3.33;;;2.63;;
2396;SDS011;1209;48.410;9.054;2023-03-21T04:42:31;3.40;;;2.30;;
2396;SDS011;1209;48.410;9.054;2023-03-21T04:44:58;3.60;;;2.47;;
2396;SDS011;1209;48.410;9.054;2023-03-21T04:47:23;2.53;;;2.30;;
2396;SDS011;1209;48.410;9.054;2023-03-21T04:49:48;3.00;;;2.67;;
2396;SDS011;1209;48.410;9.054;2023-03-21T04:52:14;4.33;;;2.60;;
2396;SDS011;1209;48.410;9.054;2023-03-21T04:54:39;5.00;;;2.50;;
2396;SDS011;1209;48.410;9.054;2023-03-21T04:57:05;2.70;;;2.50;;
2396;SDS011;1209;48.410;9.054;2023-03-21T04:59:30;2.70;;;2.50;;
2396;SDS011;1209;48.410;9.054;2023-03-21T05:01:56;3.23;;;2.90;;
2396;SDS011;1209;48.410;9.054;2023-03-21T05:04:22;2.63;;;2.43;;
2396;SDS011;1209;48.410;9.054;2023-03-21T05:06:48;3.63;;;2.30;;
2396;SDS011;1209;48.410;9.054;2023-03-21T05:09:13;2.57;;;2.37;;
2396;SDS011;1209;48.410;9.054;2023-03-21T05:11:39;2.50;;;2.30;;
2396;SDS011;1209;48.410;9.054;2023-03-21T05:14:06;2.50;;;2.30;;
2396;SDS011;1209;48.410;9.054;2023-03-21T05:16:33;3.70;;;2.63;;
2396;SDS011;1209;48.410;9.054;2023-03-21T05:19:00;2.40;;;2.30;;
2396;SDS011;1209;48.410;9.054;2023-03-21T05:21:29;5.70;;;2.90;;
2396;SDS011;1209;48.410;9.054;2023-03-21T05:24:06;2.97;;;2.67;;
2396;SDS011;1209;48.410;9.054;2023-03-21T05:26:38;2.30;;;2.10;;
2396;SDS011;1209;48.410;9.054;2023-03-21T05:29:04;2.77;;;2.57;;
2396;SDS011;1209;48.410;9.054;2023-03-21T05:31:30;3.40;;;2.53;;
2396;SDS011;1209;48.410;9.054;2023-03-21T05:33:55;3.00;;;2.67;;
2396;SDS011;1209;48.410;9.054;2023-03-21T05:36:20;2.20;;;2.00;;
2396;SDS011;1209;48.410;9.054;2023-03-21T05:38:45;2.73;;;2.53;;
2396;SDS011;1209;48.410;9.054;2023-03-21T05:41:11;2.97;;;1.83;;
2396;SDS011;1209;48.410;9.054;2023-03-21T05:43:37;2.00;;;1.90;;
2396;SDS011;1209;48.410;9.054;2023-03-21T05:46:03;3.23;;;2.57;;
2396;SDS011;1209;48.410;9.054;2023-03-21T05:48:28;5.33;;;2.80;;
2396;SDS011;1209;48.410;9.054;2023-03-21T05:50:54;4.07;;;2.43;;
2396;SDS011;1209;48.410;9.054;2023-03-21T05:53:19;2.87;;;2.67;;
2396;SDS011;1209;48.410;9.054;2023-03-21T05:55:44;3.73;;;2.37;;
2396;SDS011;1209;48.410;9.054;2023-03-21T05:58:10;3.37;;;2.77;;
2396;SDS011;1209;48.410;9.054;2023-03-21T06:00:35;5.77;;;3.00;;
2396;SDS011;1209;48.410;9.054;2023-03-21T06:03:00;2.40;;;2.20;;
2396;SDS011;1209;48.410;9.054;2023-03-21T06:05:25;2.20;;;2.10;;
2396;SDS011;1209;48.410;9.054;2023-03-21T06:07:51;5.10;;;2.70;;
2396;SDS011;1209;48.410;9.054;2023-03-21T06:10:16;2.20;;;2.00;;
2396;SDS011;1209;48.410;9.054;2023-03-21T06:12:41;2.70;;;2.50;;
2396;SDS011;1209;48.410;9.054;2023-03-21T06:15:07;3.17;;;2.73;;
2396;SDS011;1209;48.410;9.054;2023-03-21T06:17:33;2.30;;;2.20;;
2396;SDS011;1209;48.410;9.054;2023-03-21T06:19:59;3.00;;;2.80;;
2396;SDS011;1209;48.410;9.054;2023-03-21T06:22:29;2.27;;;2.10;;
2396;SDS011;1209;48.410;9.054;2023-03-21T06:24:54;2.63;;;1.90;;
2396;SDS011;1209;48.410;9.054;2023-03-21T06:27:20;2.27;;;2.10;;
2396;SDS011;1209;48.410;9.054;2023-03-21T06:29:45;2.37;;;2.20;;
2396;SDS011;1209;48.410;9.054;2023-03-21T06:32:11;3.20;;;2.90;;
2396;SDS011;1209;48.410;9.054;2023-03-21T06:34:36;3.67;;;2.77;;
2396;SDS011;1209;48.410;9.054;2023-03-21T06:37:02;2.53;;;2.30;;
2396;SDS011;1209;48.410;9.054;2023-03-21T06:39:28;3.20;;;2.90;;
2396;SDS011;1209;48.410;9.054;2023-03-21T06:41:55;6.47;;;3.53;;
2396;SDS011;1209;48.410;9.054;2023-03-21T06:44:20;3.53;;;3.23;;
2396;SDS011;1209;48.410;9.054;2023-03-21T06:46:46;3.53;;;2.90;;
2396;SDS011;1209;48.410;9.054;2023-03-21T06:49:12;4.47;;;3.57;;
2396;SDS011;1209;48.410;9.054;2023-03-21T06:51:37;4.33;;;3.70;;
2396;SDS011;1209;48.410;9.054;2023-03-21T06:54:02;7.73;;;4.60;;
2396;SDS011;1209;48.410;9.054;2023-03-21T06:56:28;3.33;;;3.03;;
2396;SDS011;1209;48.410;9.054;2023-03-21T06:58:53;5.43;;;3.40;;
2396;SDS011;1209;48.410;9.054;2023-03-21T07:01:18;4.60;;;2.53;;
2396;SDS011;1209;48.410;9.054;2023-03-21T07:03:44;2.70;;;2.50;;
2396;SDS011;1209;48.410;9.054;2023-03-21T07:06:09;7.73;;;2.73;;
2396;SDS011;1209;48.410;9.054;2023-03-21T07:08:36;6.00;;;3.20;;
2396;SDS011;1209;48.410;9.054;2023-03-21T07:11:02;3.07;;;2.87;;
2396;SDS011;1209;48.410;9.054;2023-03-21T07:13:28;2.90;;;2.60;;
2396;SDS011;1209;48.410;9.054;2023-03-21T07:15:54;3.43;;;2.63;;
2396;SDS011;1209;48.410;9.054;2023-03-21T07:18:19;3.23;;;3.03;;
2396;SDS011;1209;48.410;9.054;2023-03-21T07:20:46;3.10;;;2.90;;
2396;SDS011;1209;48.410;9.054;2023-03-21T07:23:14;3.43;;;3.13;;
2396;SDS011;1209;48.410;9.054;2023-03-21T07:25:41;3.80;;;3.43;;
2396;SDS011;1209;48.410;9.054;2023-03-21T07:28:06;3.53;;;3.23;;
2396;SDS011;1209;48.410;9.054;2023-03-21T07:30:33;3.07;;;2.77;;
2396;SDS011;1209;48.410;9.054;2023-03-21T07:32:59;8.77;;;3.10;;
2396;SDS011;1209;48.410;9.054;2023-03-21T07:35:24;3.50;;;3.20;;
2396;SDS011;1209;48.410;9.054;2023-03-21T07:37:49;6.13;;;3.63;;
2396;SDS011;1209;48.410;9.054;2023-03-21T07:40:15;3.80;;;2.93;;
2396;SDS011;1209;48.410;9.054;2023-03-21T07:42:41;3.33;;;2.87;;
2396;SDS011;1209;48.410;9.054;2023-03-21T07:45:07;3.63;;;3.33;;
2396;SDS011;1209;48.410;9.054;2023-03-21T07:47:34;3.47;;;3.17;;
2396;SDS011;1209;48.410;9.054;2023-03-21T07:50:00;5.00;;;3.80;;
2396;SDS011;1209;48.410;9.054;2023-03-21T07:52:25;4.27;;;3.00;;
2396;SDS011;1209;48.410;9.054;2023-03-21T07:54:51;5.67;;;3.33;;
2396;SDS011;1209;48.410;9.054;2023-03-21T07:57:16;3.60;;;3.07;;
2396;SDS011;1209;48.410;9.054;2023-03-21T07:59:42;6.20;;;3.70;;
2396;SDS011;1209;48.410;9.054;2023-03-21T08:02:09;3.83;;;3.40;;
2396;SDS011;1209;48.410;9.054;2023-03-21T08:04:39;2.90;;;2.60;;
2396;SDS011;1209;48.410;9.054;2023-03-21T08:07:04;5.00;;;2.97;;
2396;SDS011;1209;48.410;9.054;2023-03-21T08:09:30;4.73;;;2.40;;
2396;SDS011;1209;48.410;9.054;2023-03-21T08:11:55;3.83;;;3.00;;
2396;SDS011;1209;48.410;9.054;2023-03-21T08:14:20;9.70;;;3.67;;
2396;SDS011;1209;48.410;9.054;2023-03-21T08:16:45;3.70;;;3.17;;
2396;SDS011;1209;48.410;9.054;2023-03-21T08:19:11;4.20;;;2.83;;
2396;SDS011;1209;48.410;9.054;2023-03-21T08:21:36;11.27;;;5.10;;
2396;SDS011;1209;48.410;9.054;2023-03-21T08:24:03;3.20;;;2.93;;
2396;SDS011;1209;48.410;9.054;2023-03-21T08:26:28;6.00;;;3.10;;
2396;SDS011;1209;48.410;9.054;2023-03-21T08:28:56;3.80;;;3.20;;
2396;SDS011;1209;48.410;9.054;2023-03-21T08:31:21;5.63;;;3.27;;
2396;SDS011;1209;48.410;9.054;2023-03-21T08:33:46;4.67;;;3.20;;
2396;SDS011;1209;48.410;9.054;2023-03-21T08:36:15;5.73;;;4.13;;
2396;SDS011;1209;48.410;9.054;2023-03-21T08:38:40;9.70;;;2.80;;
2396;SDS011;1209;48.410;9.054;2023-03-21T08:41:05;3.30;;;2.70;;
2396;SDS011;1209;48.410;9.054;2023-03-21T08:43:31;4.67;;;3.27;;
2396;SDS011;1209;48.410;9.054;2023-03-21T08:45:56;2.47;;;2.20;;
2396;SDS011;1209;48.410;9.054;2023-03-21T08:48:21;3.80;;;2.10;;
2396;SDS011;1209;48.410;9.054;2023-03-21T08:50:47;6.03;;;2.57;;
2396;SDS011;1209;48.410;9.054;2023-03-21T08:53:12;3.30;;;2.57;;
2396;SDS011;1209;48.410;9.054;2023-03-21T08:55:38;2.43;;;2.20;;
2396;SDS011;1209;48.410;9.054;2023-03-21T08:58:03;2.30;;;2.10;;
2396;SDS011;1209;48.410;9.054;2023-03-21T09:00:29;2.70;;;2.17;;
2396;SDS011;1209;48.410;9.054;2023-03-21T09:02:55;5.20;;;3.80;;
2396;SDS011;1209;48.410;9.054;2023-03-21T09:05:22;3.03;;;1.90;;
2396;SDS011;1209;48.410;9.054;2023-03-21T09:07:49;2.60;;;2.07;;
2396;SDS011;1209;48.410;9.054;2023-03-21T09:10:17;1.80;;;1.70;;
2396;SDS011;1209;48.410;9.054;2023-03-21T09:12:44;3.47;;;2.40;;
2396;SDS011;1209;48.410;9.054;2023-03-21T09:15:10;2.43;;;2.20;;
2396;SDS011;1209;48.410;9.054;2023-03-21T09:17:36;2.63;;;2.23;;
2396;SDS011;1209;48.410;9.054;2023-03-21T09:20:06;2.30;;;2.20;;
2396;SDS011;1209;48.410;9.054;2023-03-21T09:22:35;2.93;;;2.20;;
2396;SDS011;1209;48.410;9.054;2023-03-21T09:25:02;2.07;;;1.97;;
2396;SDS011;1209;48.410;9.054;2023-03-21T09:27:31;1.87;;;1.77;;
2396;SDS011;1209;48.410;9.054;2023-03-21T09:29:57;1.97;;;1.77;;
2396;SDS011;1209;48.410;9.054;2023-03-21T09:32:22;7.20;;;2.00;;
2396;SDS011;1209;48.410;9.054;2023-03-21T09:34:47;2.03;;;1.93;;
2396;SDS011;1209;48.410;9.054;2023-03-21T09:37:13;2.07;;;1.87;;
2396;SDS011;1209;48.410;9.054;2023-03-21T09:39:39;2.30;;;1.70;;
2396;SDS011;1209;48.410;9.054;2023-03-21T09:50:03;1.70;;;1.60;;
2396;SDS011;1209;48.410;9.054;2023-03-21T09:55:15;3.10;;;2.47;;
2396;SDS011;1209;48.410;9.054;2023-03-21T09:57:48;1.80;;;1.70;;
2396;SDS011;1209;48.410;9.054;2023-03-21T10:00:21;6.13;;;2.60;;
2396;SDS011;1209;48.410;9.054;2023-03-21T10:02:53;1.97;;;1.77;;
2396;SDS011;1209;48.410;9.054;2023-03-21T10:05:26;2.57;;;2.27;;
2396;SDS011;1209;48.410;9.054;2023-03-21T10:10:54;2.90;;;2.00;;
2396;SDS011;1209;48.410;9.054;2023-03-21T10:13:25;1.90;;;1.70;;
2396;SDS011;1209;48.410;9.054;2023-03-21T10:15:57;2.00;;;1.90;;
2396;SDS011;1209;48.410;9.054;2023-03-21T10:18:25;2.80;;;2.30;;
2396;SDS011;1209;48.410;9.054;2023-03-21T10:20:53;2.00;;;1.90;;
2396;SDS011;1209;48.410;9.054;2023-03-21T10:23:20;3.87;;;2.40;;
2396;SDS011;1209;48.410;9.054;2023-03-21T10:25:49;2.90;;;2.50;;
2396;SDS011;1209;48.410;9.054;2023-03-21T10:28:19;2.60;;;2.27;;
2396;SDS011;1209;48.410;9.054;2023-03-21T10:33:21;1.97;;;1.87;;
2396;SDS011;1209;48.410;9.054;2023-03-21T10:35:50;2.80;;;2.50;;
2396;SDS011;1209;48.410;9.054;2023-03-21T10:38:19;4.27;;;2.20;;
2396;SDS011;1209;48.410;9.054;2023-03-21T10:40:46;2.30;;;2.10;;
2396;SDS011;1209;48.410;9.054;2023-03-21T10:43:16;3.03;;;2.40;;
2396;SDS011;1209;48.410;9.054;2023-03-21T10:45:44;3.10;;;2.33;;
2396;SDS011;1209;48.410;9.054;2023-03-21T10:48:11;2.80;;;2.60;;
2396;SDS011;1209;48.410;9.054;2023-03-21T10:50:37;4.03;;;3.00;;
2396;SDS011;1209;48.410;9.054;2023-03-21T10:53:02;2.60;;;1.80;;
2396;SDS011;1209;48.410;9.054;2023-03-21T10:55:55;3.00;;;2.37;;
2396;SDS011;1209;48.410;9.054;2023-03-21T10:58:34;3.03;;;2.27;;
2396;SDS011;1209;48.410;9.054;2023-03-21T11:01:03;4.20;;;2.80;;
2396;SDS011;1209;48.410;9.054;2023-03-21T11:03:35;2.13;;;1.93;;
2396;SDS011;1209;48.410;9.054;2023-03-21T11:06:10;2.07;;;1.97;;
2396;SDS011;1209;48.410;9.054;2023-03-21T11:08:46;3.10;;;2.53;;
2396;SDS011;1209;48.410;9.054;2023-03-21T11:11:18;2.60;;;2.40;;
2396;SDS011;1209;48.410;9.054;2023-03-21T11:13:59;3.00;;;2.40;;
2396;SDS011;1209;48.410;9.054;2023-03-21T11:16:34;3.00;;;2.70;;
2396;SDS011;1209;48.410;9.054;2023-03-21T11:19:11;3.20;;;2.90;;
2396;SDS011;1209;48.410;9.054;2023-03-21T11:21:38;3.30;;;3.00;;
2396;SDS011;1209;48.410;9.054;2023-03-21T11:24:04;2.80;;;2.60;;
2396;SDS011;1209;48.410;9.054;2023-03-21T11:26:34;3.10;;;2.37;;
2396;SDS011;1209;48.410;9.054;2023-03-21T11:31:48;3.23;;;2.93;;
2396;SDS011;1209;48.410;9.054;2023-03-21T11:34:24;3.67;;;2.90;;
2396;SDS011;1209;48.410;9.054;2023-03-21T11:36:56;2.80;;;2.60;;
2396;SDS011;1209;48.410;9.054;2023-03-21T11:42:01;3.20;;;2.90;;
2396;SDS011;1209;48.410;9.054;2023-03-21T11:44:31;2.93;;;2.50;;
2396;SDS011;1209;48.410;9.054;2023-03-21T11:46:59;7.30;;;3.00;;
2396;SDS011;1209;48.410;9.054;2023-03-21T11:49:25;4.13;;;3.10;;
2396;SDS011;1209;48.410;9.054;2023-03-21T11:52:13;4.03;;;2.53;;
2396;SDS011;1209;48.410;9.054;2023-03-21T11:55:00;2.10;;;1.90;;
2396;SDS011;1209;48.410;9.054;2023-03-21T11:57:43;2.37;;;2.17;;
2396;SDS011;1209;48.410;9.054;2023-03-21T12:06:33;3.60;;;2.33;;
2396;SDS011;1209;48.410;9.054;2023-03-21T12:09:16;2.47;;;2.10;;
2396;SDS011;1209;48.410;9.054;2023-03-21T12:14:36;2.37;;;2.17;;
2396;SDS011;1209;48.410;9.054;2023-03-21T12:17:34;2.60;;;2.40;;
2396;SDS011;1209;48.410;9.054;2023-03-21T12:20:13;2.73;;;1.97;;
2396;SDS011;1209;48.410;9.054;2023-03-21T12:22:54;2.27;;;1.80;;
2396;SDS011;1209;48.410;9.054;2023-03-21T12:25:32;3.73;;;1.90;;
2396;SDS011;1209;48.410;9.054;2023-03-21T12:28:07;2.70;;;2.10;;
2396;SDS011;1209;48.410;9.054;2023-03-21T12:39:00;2.00;;;1.43;;
2396;SDS011;1209;48.410;9.054;2023-03-21T12:44:25;1.90;;;1.50;;
2396;SDS011;1209;48.410;9.054;2023-03-21T12:47:00;1.40;;;1.30;;
2396;SDS011;1209;48.410;9.054;2023-03-21T12:49:33;0.83;;;0.83;;
2396;SDS011;1209;48.410;9.054;2023-03-21T12:52:06;2.10;;;1.30;;
2396;SDS011;1209;48.410;9.054;2023-03-21T12:57:08;1.30;;;1.00;;
2396;SDS011;1209;48.410;9.054;2023-03-21T12:59:41;2.10;;;1.40;;
2396;SDS011;1209;48.410;9.054;2023-03-21T13:02:29;2.00;;;1.40;;
2396;SDS011;1209;48.410;9.054;2023-03-21T13:07:41;1.97;;;1.70;;
2396;SDS011;1209;48.410;9.054;2023-03-21T13:10:11;1.53;;;1.33;;
2396;SDS011;1209;48.410;9.054;2023-03-21T13:15:21;1.73;;;1.17;;
2396;SDS011;1209;48.410;9.054;2023-03-21T13:17:58;1.23;;;1.20;;
2396;SDS011;1209;48.410;9.054;2023-03-21T13:20:39;1.20;;;1.20;;
2396;SDS011;1209;48.410;9.054;2023-03-21T13:23:10;2.40;;;2.07;;
2396;SDS011;1209;48.410;9.054;2023-03-21T13:25:41;2.07;;;1.87;;
2396;SDS011;1209;48.410;9.054;2023-03-21T13:28:20;1.13;;;1.13;;
2396;SDS011;1209;48.410;9.054;2023-03-21T13:30:49;1.13;;;1.03;;
2396;SDS011;1209;48.410;9.054;2023-03-21T13:33:22;1.60;;;1.30;;
2396;SDS011;1209;48.410;9.054;2023-03-21T13:36:38;1.10;;;1.10;;
2396;SDS011;1209;48.410;9.054;2023-03-21T13:38:50;3.73;;;1.37;;
2396;SDS011;1209;48.410;9.054;2023-03-21T13:41:19;1.10;;;1.10;;
2396;SDS011;1209;48.410;9.054;2023-03-21T13:43:54;1.37;;;1.27;;
2396;SDS011;1209;48.410;9.054;2023-03-21T13:46:36;1.20;;;1.20;;
2396;SDS011;1209;48.410;9.054;2023-03-21T13:51:49;1.27;;;1.17;;
2396;SDS011;1209;48.410;9.054;2023-03-21T13:54:18;0.90;;;0.90;;
2396;SDS011;1209;48.410;9.054;2023-03-21T13:56:48;1.20;;;1.20;;
2396;SDS011;1209;48.410;9.054;2023-03-21T13:59:17;2.10;;;1.13;;
2396;SDS011;1209;48.410;9.054;2023-03-21T14:04:58;0.90;;;0.80;;
2396;SDS011;1209;48.410;9.054;2023-03-21T14:07:32;1.40;;;1.30;;
2396;SDS011;1209;48.410;9.054;2023-03-21T14:10:05;1.17;;;1.07;;
2396;SDS011;1209;48.410;9.054;2023-03-21T14:12:41;0.70;;;0.70;;
2396;SDS011;1209;48.410;9.054;2023-03-21T14:20:22;1.20;;;1.00;;
2396;SDS011;1209;48.410;9.054;2023-03-21T14:22:50;1.00;;;1.00;;
2396;SDS011;1209;48.410;9.054;2023-03-21T14:25:16;1.03;;;0.83;;
2396;SDS011;1209;48.410;9.054;2023-03-21T14:27:44;0.93;;;0.93;;
2396;SDS011;1209;48.410;9.054;2023-03-21T14:30:20;0.73;;;0.70;;
2396;SDS011;1209;48.410;9.054;2023-03-21T14:32:49;0.87;;;0.87;;
2396;SDS011;1209;48.410;9.054;2023-03-21T14:35:17;1.00;;;1.00;;
2396;SDS011;1209;48.410;9.054;2023-03-21T14:37:45;0.90;;;0.90;;
2396;SDS011;1209;48.410;9.054;2023-03-21T14:40:24;0.93;;;0.93;;
2396;SDS011;1209;48.410;9.054;2023-03-21T14:42:51;2.40;;;1.10;;
2396;SDS011;1209;48.410;9.054;2023-03-21T14:45:22;1.43;;;1.33;;
2396;SDS011;1209;48.410;9.054;2023-03-21T14:47:53;1.70;;;1.20;;
2396;SDS011;1209;48.410;9.054;2023-03-21T14:50:23;1.30;;;1.20;;
2396;SDS011;1209;48.410;9.054;2023-03-21T14:52:55;2.13;;;1.20;;
2396;SDS011;1209;48.410;9.054;2023-03-21T14:55:22;1.57;;;1.20;;
2396;SDS011;1209;48.410;9.054;2023-03-21T14:57:47;1.10;;;0.97;;
2396;SDS011;1209;48.410;9.054;2023-03-21T15:00:16;1.33;;;1.10;;
2396;SDS011;1209;48.410;9.054;2023-03-21T15:02:48;1.23;;;1.23;;
2396;SDS011;1209;48.410;9.054;2023-03-21T15:05:25;0.93;;;0.93;;
2396;SDS011;1209;48.410;9.054;2023-03-21T15:10:24;1.10;;;1.10;;
2396;SDS011;1209;48.410;9.054;2023-03-21T15:15:40;1.30;;;1.20;;
2396;SDS011;1209;48.410;9.054;2023-03-21T15:18:06;1.40;;;1.30;;
2396;SDS011;1209;48.410;9.054;2023-03-21T15:20:33;1.10;;;1.07;;
2396;SDS011;1209;48.410;9.054;2023-03-21T15:23:02;0.90;;;0.90;;
2396;SDS011;1209;48.410;9.054;2023-03-21T15:25:33;3.27;;;1.20;;
2396;SDS011;1209;48.410;9.054;2023-03-21T15:28:00;3.17;;;2.07;;
2396;SDS011;1209;48.410;9.054;2023-03-21T15:30:28;4.20;;;1.53;;
2396;SDS011;1209;48.410;9.054;2023-03-21T15:32:55;1.53;;;1.30;;
2396;SDS011;1209;48.410;9.054;2023-03-21T15:35:26;3.43;;;1.50;;
2396;SDS011;1209;48.410;9.054;2023-03-21T15:37:56;0.93;;;0.93;;
2396;SDS011;1209;48.410;9.054;2023-03-21T15:42:50;4.67;;;1.37;;
2396;SDS011;1209;48.410;9.054;2023-03-21T15:45:27;1.13;;;0.90;;
2396;SDS011;1209;48.410;9.054;2023-03-21T15:47:55;1.00;;;1.00;;
2396;SDS011;1209;48.410;9.054;2023-03-21T15:50:27;1.13;;;0.83;;
2396;SDS011;1209;48.410;9.054;2023-03-21T15:53:02;1.10;;;1.00;;
2396;SDS011;1209;48.410;9.054;2023-03-21T15:55:37;1.38;;;1.27;;
2396;SDS011;1209;48.410;9.054;2023-03-21T15:58:20;1.10;;;1.00;;
2396;SDS011;1209;48.410;9.054;2023-03-21T16:00:51;0.80;;;0.80;;
2396;SDS011;1209;48.410;9.054;2023-03-21T16:03:26;0.93;;;0.93;;
2396;SDS011;1209;48.410;9.054;2023-03-21T16:06:04;1.17;;;1.17;;
2396;SDS011;1209;48.410;9.054;2023-03-21T16:08:33;1.00;;;1.00;;
2396;SDS011;1209;48.410;9.054;2023-03-21T16:11:17;1.57;;;1.47;;
2396;SDS011;1209;48.410;9.054;2023-03-21T16:13:42;1.27;;;1.10;;
2396;SDS011;1209;48.410;9.054;2023-03-21T16:16:12;1.20;;;1.10;;
2396;SDS011;1209;48.410;9.054;2023-03-21T16:18:40;1.00;;;1.00;;
2396;SDS011;1209;48.410;9.054;2023-03-21T16:21:08;1.43;;;1.23;;
2396;SDS011;1209;48.410;9.054;2023-03-21T16:23:36;1.00;;;1.00;;
2396;SDS011;1209;48.410;9.054;2023-03-21T16:26:01;1.03;;;1.00;;
2396;SDS011;1209;48.410;9.054;2023-03-21T16:28:29;1.50;;;1.40;;
2396;SDS011;1209;48.410;9.054;2023-03-21T16:30:54;1.27;;;1.17;;
2396;SDS011;1209;48.410;9.054;2023-03-21T16:33:20;1.00;;;1.00;;
2396;SDS011;1209;48.410;9.054;2023-03-21T16:35:46;1.27;;;1.00;;
2396;SDS011;1209;48.410;9.054;2023-03-21T16:38:11;0.80;;;0.80;;
2396;SDS011;1209;48.410;9.054;2023-03-21T16:40:37;1.03;;;1.03;;
2396;SDS011;1209;48.410;9.054;2023-03-21T16:43:04;1.50;;;1.10;;
2396;SDS011;1209;48.410;9.054;2023-03-21T16:45:30;1.00;;;0.97;;
2396;SDS011;1209;48.410;9.054;2023-03-21T16:47:56;1.40;;;1.30;;
2396;SDS011;1209;48.410;9.054;2023-03-21T16:50:31;1.00;;;1.00;;
2396;SDS011;1209;48.410;9.054;2023-03-21T16:53:03;1.10;;;0.97;;
2396;SDS011;1209;48.410;9.054;2023-03-21T16:55:29;0.90;;;0.90;;
2396;SDS011;1209;48.410;9.054;2023-03-21T16:57:57;1.03;;;1.03;;
2396;SDS011;1209;48.410;9.054;2023-03-21T17:00:24;1.20;;;1.10;;
2396;SDS011;1209;48.410;9.054;2023-03-21T17:02:52;1.20;;;1.20;;
2396;SDS011;1209;48.410;9.054;2023-03-21T17:05:19;0.93;;;0.93;;
2396;SDS011;1209;48.410;9.054;2023-03-21T17:07:45;1.67;;;1.57;;